sensor_id;sensor_type;location;lat;lon;timestamp;P1;durP1;ratioP1;P2;durP2;ratioP2
49101;SDS011;34913;47.520;19.186;2023-08-12T00:01:17;7.57;;;3.70;;
49101;SDS011;34913;47.520;19.186;2023-08-12T00:03:45;4.20;;;3.40;;
49101;SDS011;34913;47.520;19.186;2023-08-12T00:06:10;4.93;;;3.70;;
49101;SDS011;34913;47.520;19.186;2023-08-12T00:08:36;6.82;;;3.53;;
49101;SDS011;34913;47.520;19.186;2023-08-12T00:11:01;4.80;;;3.50;;
49101;SDS011;34913;47.520;19.186;2023-08-12T00:13:26;5.55;;;3.65;;
49101;SDS011;34913;47.520;19.186;2023-08-12T00:15:52;4.22;;;3.70;;
49101;SDS011;34913;47.520;19.186;2023-08-12T00:18:17;7.30;;;4.15;;
49101;SDS011;34913;47.520;19.186;2023-08-12T00:20:43;6.28;;;3.85;;
49101;SDS011;34913;47.520;19.186;2023-08-12T00:23:08;5.35;;;3.72;;
49101;SDS011;34913;47.520;19.186;2023-08-12T00:25:34;6.07;;;3.50;;
49101;SDS011;34913;47.520;19.186;2023-08-12T00:27:59;5.10;;;3.85;;
49101;SDS011;34913;47.520;19.186;2023-08-12T00:30:25;7.43;;;3.83;;
49101;SDS011;34913;47.520;19.186;2023-08-12T00:32:50;6.20;;;3.83;;
49101;SDS011;34913;47.520;19.186;2023-08-12T00:35:16;5.85;;;4.10;;
49101;SDS011;34913;47.520;19.186;2023-08-12T00:37:41;6.40;;;3.60;;
49101;SDS011;34913;47.520;19.186;2023-08-12T00:40:07;6.50;;;3.90;;
49101;SDS011;34913;47.520;19.186;2023-08-12T00:42:33;9.75;;;3.72;;
49101;SDS011;34913;47.520;19.186;2023-08-12T00:44:58;5.05;;;3.75;;
49101;SDS011;34913;47.520;19.186;2023-08-12T00:47:24;5.35;;;3.65;;
49101;SDS011;34913;47.520;19.186;2023-08-12T00:49:50;5.00;;;3.35;;
49101;SDS011;34913;47.520;19.186;2023-08-12T00:52:15;7.20;;;4.32;;
49101;SDS011;34913;47.520;19.186;2023-08-12T00:54:42;5.20;;;3.63;;
49101;SDS011;34913;47.520;19.186;2023-08-12T00:57:08;5.07;;;3.50;;
49101;SDS011;34913;47.520;19.186;2023-08-12T00:59:37;5.78;;;3.78;;
49101;SDS011;34913;47.520;19.186;2023-08-12T01:04:32;5.05;;;3.42;;
49101;SDS011;34913;47.520;19.186;2023-08-12T01:06:57;4.97;;;3.80;;
49101;SDS011;34913;47.520;19.186;2023-08-12T01:09:22;6.07;;;3.60;;
49101;SDS011;34913;47.520;19.186;2023-08-12T01:11:51;5.72;;;3.90;;
49101;SDS011;34913;47.520;19.186;2023-08-12T01:17:04;6.97;;;4.05;;
49101;SDS011;34913;47.520;19.186;2023-08-12T01:19:37;6.75;;;3.63;;
49101;SDS011;34913;47.520;19.186;2023-08-12T01:22:06;5.22;;;3.80;;
49101;SDS011;34913;47.520;19.186;2023-08-12T01:24:34;5.95;;;3.42;;
49101;SDS011;34913;47.520;19.186;2023-08-12T01:27:03;7.78;;;3.45;;
49101;SDS011;34913;47.520;19.186;2023-08-12T01:29:29;5.45;;;3.67;;
49101;SDS011;34913;47.520;19.186;2023-08-12T01:31:58;5.00;;;3.88;;
49101;SDS011;34913;47.520;19.186;2023-08-12T01:37:39;5.75;;;3.75;;
49101;SDS011;34913;47.520;19.186;2023-08-12T01:40:05;4.22;;;3.40;;
49101;SDS011;34913;47.520;19.186;2023-08-12T01:42:34;6.45;;;3.75;;
49101;SDS011;34913;47.520;19.186;2023-08-12T01:44:59;5.72;;;3.40;;
49101;SDS011;34913;47.520;19.186;2023-08-12T01:47:26;5.38;;;3.63;;
49101;SDS011;34913;47.520;19.186;2023-08-12T01:49:52;4.95;;;3.53;;
49101;SDS011;34913;47.520;19.186;2023-08-12T01:52:18;5.25;;;3.70;;
49101;SDS011;34913;47.520;19.186;2023-08-12T01:54:43;4.55;;;3.40;;
49101;SDS011;34913;47.520;19.186;2023-08-12T01:57:08;6.25;;;3.70;;
49101;SDS011;34913;47.520;19.186;2023-08-12T01:59:34;4.72;;;3.92;;
49101;SDS011;34913;47.520;19.186;2023-08-12T02:02:00;6.30;;;3.80;;
49101;SDS011;34913;47.520;19.186;2023-08-12T02:04:26;7.38;;;3.92;;
49101;SDS011;34913;47.520;19.186;2023-08-12T02:06:52;11.27;;;4.30;;
49101;SDS011;34913;47.520;19.186;2023-08-12T02:09:20;7.22;;;4.28;;
49101;SDS011;34913;47.520;19.186;2023-08-12T02:11:46;12.13;;;4.47;;
49101;SDS011;34913;47.520;19.186;2023-08-12T02:14:11;9.88;;;4.50;;
49101;SDS011;34913;47.520;19.186;2023-08-12T02:16:37;12.63;;;4.53;;
49101;SDS011;34913;47.520;19.186;2023-08-12T02:19:02;13.70;;;4.97;;
49101;SDS011;34913;47.520;19.186;2023-08-12T02:21:28;6.50;;;4.20;;
49101;SDS011;34913;47.520;19.186;2023-08-12T02:23:53;7.28;;;4.28;;
49101;SDS011;34913;47.520;19.186;2023-08-12T02:26:19;5.53;;;3.83;;
49101;SDS011;34913;47.520;19.186;2023-08-12T02:28:44;13.10;;;4.70;;
49101;SDS011;34913;47.520;19.186;2023-08-12T02:31:09;10.25;;;4.75;;
49101;SDS011;34913;47.520;19.186;2023-08-12T02:33:35;12.27;;;5.22;;
49101;SDS011;34913;47.520;19.186;2023-08-12T02:36:00;10.15;;;4.80;;
49101;SDS011;34913;47.520;19.186;2023-08-12T02:38:26;8.07;;;5.10;;
49101;SDS011;34913;47.520;19.186;2023-08-12T02:40:51;9.65;;;4.63;;
49101;SDS011;34913;47.520;19.186;2023-08-12T02:43:17;9.07;;;4.75;;
49101;SDS011;34913;47.520;19.186;2023-08-12T02:45:42;10.45;;;4.63;;
49101;SDS011;34913;47.520;19.186;2023-08-12T02:48:11;12.13;;;5.10;;
49101;SDS011;34913;47.520;19.186;2023-08-12T02:50:37;8.20;;;4.50;;
49101;SDS011;34913;47.520;19.186;2023-08-12T02:53:03;5.82;;;4.22;;
49101;SDS011;34913;47.520;19.186;2023-08-12T02:55:29;7.28;;;4.28;;
49101;SDS011;34913;47.520;19.186;2023-08-12T02:57:56;6.53;;;4.20;;
49101;SDS011;34913;47.520;19.186;2023-08-12T03:00:22;6.15;;;4.05;;
49101;SDS011;34913;47.520;19.186;2023-08-12T03:02:48;5.13;;;3.92;;
49101;SDS011;34913;47.520;19.186;2023-08-12T03:05:13;5.47;;;3.83;;
49101;SDS011;34913;47.520;19.186;2023-08-12T03:07:38;8.00;;;3.97;;
49101;SDS011;34913;47.520;19.186;2023-08-12T03:10:04;5.82;;;4.30;;
49101;SDS011;34913;47.520;19.186;2023-08-12T03:12:30;6.85;;;4.53;;
49101;SDS011;34913;47.520;19.186;2023-08-12T03:14:56;7.20;;;4.07;;
49101;SDS011;34913;47.520;19.186;2023-08-12T03:17:21;5.25;;;4.13;;
49101;SDS011;34913;47.520;19.186;2023-08-12T03:19:47;4.88;;;4.20;;
49101;SDS011;34913;47.520;19.186;2023-08-12T03:22:12;4.95;;;4.25;;
49101;SDS011;34913;47.520;19.186;2023-08-12T03:24:37;6.97;;;4.40;;
49101;SDS011;34913;47.520;19.186;2023-08-12T03:27:03;5.43;;;4.55;;
49101;SDS011;34913;47.520;19.186;2023-08-12T03:29:28;5.78;;;4.60;;
49101;SDS011;34913;47.520;19.186;2023-08-12T03:31:54;5.07;;;4.25;;
49101;SDS011;34913;47.520;19.186;2023-08-12T03:34:19;9.68;;;5.00;;
49101;SDS011;34913;47.520;19.186;2023-08-12T03:36:44;7.43;;;4.60;;
49101;SDS011;34913;47.520;19.186;2023-08-12T03:39:13;4.75;;;4.30;;
49101;SDS011;34913;47.520;19.186;2023-08-12T03:41:39;8.75;;;4.78;;
49101;SDS011;34913;47.520;19.186;2023-08-12T03:44:05;4.80;;;4.30;;
49101;SDS011;34913;47.520;19.186;2023-08-12T03:46:30;6.72;;;5.00;;
49101;SDS011;34913;47.520;19.186;2023-08-12T03:48:56;6.75;;;4.57;;
49101;SDS011;34913;47.520;19.186;2023-08-12T03:51:21;7.90;;;4.70;;
49101;SDS011;34913;47.520;19.186;2023-08-12T03:53:47;6.57;;;4.68;;
49101;SDS011;34913;47.520;19.186;2023-08-12T03:56:12;6.53;;;4.60;;
49101;SDS011;34913;47.520;19.186;2023-08-12T03:58:40;7.55;;;5.00;;
49101;SDS011;34913;47.520;19.186;2023-08-12T04:01:06;6.53;;;4.88;;
49101;SDS011;34913;47.520;19.186;2023-08-12T04:03:31;6.75;;;4.90;;
49101;SDS011;34913;47.520;19.186;2023-08-12T04:05:57;8.38;;;5.03;;
49101;SDS011;34913;47.520;19.186;2023-08-12T04:08:22;7.35;;;4.57;;
49101;SDS011;34913;47.520;19.186;2023-08-12T04:10:49;6.63;;;5.50;;
49101;SDS011;34913;47.520;19.186;2023-08-12T04:13:15;8.88;;;5.05;;
49101;SDS011;34913;47.520;19.186;2023-08-12T04:15:41;7.50;;;4.60;;
49101;SDS011;34913;47.520;19.186;2023-08-12T04:18:06;5.68;;;4.60;;
49101;SDS011;34913;47.520;19.186;2023-08-12T04:20:32;7.10;;;4.93;;
49101;SDS011;34913;47.520;19.186;2023-08-12T04:22:57;7.05;;;4.68;;
49101;SDS011;34913;47.520;19.186;2023-08-12T04:25:23;6.75;;;4.88;;
49101;SDS011;34913;47.520;19.186;2023-08-12T04:27:49;8.55;;;5.18;;
49101;SDS011;34913;47.520;19.186;2023-08-12T04:30:15;10.95;;;4.80;;
49101;SDS011;34913;47.520;19.186;2023-08-12T04:32:41;7.78;;;4.85;;
49101;SDS011;34913;47.520;19.186;2023-08-12T04:35:07;6.05;;;4.70;;
49101;SDS011;34913;47.520;19.186;2023-08-12T04:37:33;7.07;;;4.60;;
49101;SDS011;34913;47.520;19.186;2023-08-12T04:39:58;6.70;;;4.82;;
49101;SDS011;34913;47.520;19.186;2023-08-12T04:42:24;6.13;;;4.80;;
49101;SDS011;34913;47.520;19.186;2023-08-12T04:44:49;6.35;;;4.40;;
49101;SDS011;34913;47.520;19.186;2023-08-12T04:47:15;7.45;;;4.22;;
49101;SDS011;34913;47.520;19.186;2023-08-12T04:49:40;6.53;;;4.40;;
49101;SDS011;34913;47.520;19.186;2023-08-12T04:52:06;5.97;;;4.90;;
49101;SDS011;34913;47.520;19.186;2023-08-12T04:54:32;4.85;;;4.30;;
49101;SDS011;34913;47.520;19.186;2023-08-12T04:56:57;6.93;;;4.60;;
49101;SDS011;34913;47.520;19.186;2023-08-12T04:59:24;7.55;;;4.50;;
49101;SDS011;34913;47.520;19.186;2023-08-12T05:01:50;5.78;;;4.07;;
49101;SDS011;34913;47.520;19.186;2023-08-12T05:04:15;5.95;;;4.10;;
49101;SDS011;34913;47.520;19.186;2023-08-12T05:06:41;8.48;;;4.28;;
49101;SDS011;34913;47.520;19.186;2023-08-12T05:09:06;5.72;;;3.60;;
49101;SDS011;34913;47.520;19.186;2023-08-12T05:11:32;7.43;;;3.70;;
49101;SDS011;34913;47.520;19.186;2023-08-12T05:13:57;8.45;;;3.80;;
49101;SDS011;34913;47.520;19.186;2023-08-12T05:16:23;4.70;;;3.50;;
49101;SDS011;34913;47.520;19.186;2023-08-12T05:18:48;5.93;;;3.65;;
49101;SDS011;34913;47.520;19.186;2023-08-12T05:21:14;4.90;;;3.53;;
49101;SDS011;34913;47.520;19.186;2023-08-12T05:23:39;4.68;;;3.15;;
49101;SDS011;34913;47.520;19.186;2023-08-12T05:26:04;5.57;;;3.28;;
49101;SDS011;34913;47.520;19.186;2023-08-12T05:28:30;5.78;;;3.42;;
49101;SDS011;34913;47.520;19.186;2023-08-12T05:30:55;4.18;;;3.00;;
49101;SDS011;34913;47.520;19.186;2023-08-12T05:33:21;3.50;;;2.63;;
49101;SDS011;34913;47.520;19.186;2023-08-12T05:35:47;4.45;;;3.38;;
49101;SDS011;34913;47.520;19.186;2023-08-12T05:38:13;2.83;;;2.60;;
49101;SDS011;34913;47.520;19.186;2023-08-12T05:40:39;5.30;;;3.00;;
49101;SDS011;34913;47.520;19.186;2023-08-12T05:43:04;6.30;;;3.30;;
49101;SDS011;34913;47.520;19.186;2023-08-12T05:45:29;5.47;;;3.25;;
49101;SDS011;34913;47.520;19.186;2023-08-12T05:47:55;5.18;;;3.22;;
49101;SDS011;34913;47.520;19.186;2023-08-12T05:50:21;3.75;;;3.08;;
49101;SDS011;34913;47.520;19.186;2023-08-12T05:52:46;5.95;;;3.35;;
49101;SDS011;34913;47.520;19.186;2023-08-12T05:55:12;3.15;;;2.80;;
49101;SDS011;34913;47.520;19.186;2023-08-12T05:57:37;4.55;;;2.92;;
49101;SDS011;34913;47.520;19.186;2023-08-12T06:00:03;6.75;;;3.03;;
49101;SDS011;34913;47.520;19.186;2023-08-12T06:02:29;4.03;;;2.88;;
49101;SDS011;34913;47.520;19.186;2023-08-12T06:04:54;3.53;;;2.70;;
49101;SDS011;34913;47.520;19.186;2023-08-12T06:07:20;3.67;;;2.70;;
49101;SDS011;34913;47.520;19.186;2023-08-12T06:09:45;5.72;;;3.00;;
49101;SDS011;34913;47.520;19.186;2023-08-12T06:12:11;3.83;;;2.70;;
49101;SDS011;34913;47.520;19.186;2023-08-12T06:14:37;5.85;;;2.60;;
49101;SDS011;34913;47.520;19.186;2023-08-12T06:17:03;3.40;;;2.38;;
49101;SDS011;34913;47.520;19.186;2023-08-12T06:19:29;6.00;;;3.00;;
49101;SDS011;34913;47.520;19.186;2023-08-12T06:21:54;3.75;;;2.42;;
49101;SDS011;34913;47.520;19.186;2023-08-12T06:24:19;4.47;;;2.50;;
49101;SDS011;34913;47.520;19.186;2023-08-12T06:26:45;4.10;;;2.58;;
49101;SDS011;34913;47.520;19.186;2023-08-12T06:29:10;3.90;;;2.70;;
49101;SDS011;34913;47.520;19.186;2023-08-12T06:31:36;2.80;;;2.42;;
49101;SDS011;34913;47.520;19.186;2023-08-12T06:34:01;3.33;;;2.38;;
49101;SDS011;34913;47.520;19.186;2023-08-12T06:36:27;3.55;;;2.70;;
49101;SDS011;34913;47.520;19.186;2023-08-12T06:38:52;5.28;;;2.45;;
49101;SDS011;34913;47.520;19.186;2023-08-12T06:41:18;4.32;;;2.63;;
49101;SDS011;34913;47.520;19.186;2023-08-12T06:43:43;3.65;;;2.35;;
49101;SDS011;34913;47.520;19.186;2023-08-12T06:46:08;3.97;;;2.30;;
49101;SDS011;34913;47.520;19.186;2023-08-12T06:48:34;4.03;;;2.30;;
49101;SDS011;34913;47.520;19.186;2023-08-12T06:50:59;3.38;;;2.13;;
49101;SDS011;34913;47.520;19.186;2023-08-12T06:53:29;5.10;;;2.45;;
49101;SDS011;34913;47.520;19.186;2023-08-12T06:55:54;4.82;;;2.50;;
49101;SDS011;34913;47.520;19.186;2023-08-12T06:58:20;3.72;;;2.38;;
49101;SDS011;34913;47.520;19.186;2023-08-12T07:00:46;3.15;;;2.15;;
49101;SDS011;34913;47.520;19.186;2023-08-12T07:03:11;7.03;;;2.58;;
49101;SDS011;34913;47.520;19.186;2023-08-12T07:05:37;3.38;;;2.40;;
49101;SDS011;34913;47.520;19.186;2023-08-12T07:08:02;3.83;;;2.05;;
49101;SDS011;34913;47.520;19.186;2023-08-12T07:10:28;3.35;;;2.30;;
49101;SDS011;34913;47.520;19.186;2023-08-12T07:12:53;3.20;;;2.25;;
49101;SDS011;34913;47.520;19.186;2023-08-12T07:15:19;2.50;;;2.15;;
49101;SDS011;34913;47.520;19.186;2023-08-12T07:17:44;4.90;;;2.20;;
49101;SDS011;34913;47.520;19.186;2023-08-12T07:20:10;5.70;;;2.28;;
49101;SDS011;34913;47.520;19.186;2023-08-12T07:22:35;2.90;;;2.30;;
49101;SDS011;34913;47.520;19.186;2023-08-12T07:25:01;3.85;;;2.15;;
49101;SDS011;34913;47.520;19.186;2023-08-12T07:27:27;3.65;;;2.30;;
49101;SDS011;34913;47.520;19.186;2023-08-12T07:29:52;4.15;;;2.30;;
49101;SDS011;34913;47.520;19.186;2023-08-12T07:32:18;2.88;;;2.35;;
49101;SDS011;34913;47.520;19.186;2023-08-12T07:34:44;7.50;;;2.30;;
49101;SDS011;34913;47.520;19.186;2023-08-12T07:37:09;3.85;;;2.08;;
49101;SDS011;34913;47.520;19.186;2023-08-12T07:39:35;5.53;;;2.33;;
49101;SDS011;34913;47.520;19.186;2023-08-12T07:42:01;3.65;;;2.30;;
49101;SDS011;34913;47.520;19.186;2023-08-12T07:44:26;4.10;;;2.40;;
49101;SDS011;34913;47.520;19.186;2023-08-12T07:46:51;5.13;;;2.38;;
49101;SDS011;34913;47.520;19.186;2023-08-12T07:49:17;4.03;;;2.40;;
49101;SDS011;34913;47.520;19.186;2023-08-12T07:51:42;5.63;;;2.20;;
49101;SDS011;34913;47.520;19.186;2023-08-12T07:54:08;3.20;;;2.15;;
49101;SDS011;34913;47.520;19.186;2023-08-12T07:56:33;8.77;;;3.10;;
49101;SDS011;34913;47.520;19.186;2023-08-12T07:58:58;2.97;;;1.88;;
49101;SDS011;34913;47.520;19.186;2023-08-12T08:01:24;3.50;;;2.08;;
49101;SDS011;34913;47.520;19.186;2023-08-12T08:03:49;6.45;;;2.13;;
49101;SDS011;34913;47.520;19.186;2023-08-12T08:06:14;2.55;;;2.00;;
49101;SDS011;34913;47.520;19.186;2023-08-12T08:08:40;5.30;;;2.30;;
49101;SDS011;34913;47.520;19.186;2023-08-12T08:11:05;2.63;;;2.30;;
49101;SDS011;34913;47.520;19.186;2023-08-12T08:13:31;2.53;;;2.10;;
49101;SDS011;34913;47.520;19.186;2023-08-12T08:15:57;2.85;;;2.10;;
49101;SDS011;34913;47.520;19.186;2023-08-12T08:18:22;2.30;;;2.15;;
49101;SDS011;34913;47.520;19.186;2023-08-12T08:20:48;4.53;;;2.60;;
49101;SDS011;34913;47.520;19.186;2023-08-12T08:23:13;4.85;;;2.40;;
49101;SDS011;34913;47.520;19.186;2023-08-12T08:25:39;4.72;;;2.33;;
49101;SDS011;34913;47.520;19.186;2023-08-12T08:28:04;5.10;;;2.30;;
49101;SDS011;34913;47.520;19.186;2023-08-12T08:30:30;2.75;;;2.30;;
49101;SDS011;34913;47.520;19.186;2023-08-12T08:32:55;4.32;;;2.20;;
49101;SDS011;34913;47.520;19.186;2023-08-12T08:35:21;3.28;;;2.28;;
49101;SDS011;34913;47.520;19.186;2023-08-12T08:37:46;4.90;;;2.55;;
49101;SDS011;34913;47.520;19.186;2023-08-12T08:40:11;3.70;;;2.30;;
49101;SDS011;34913;47.520;19.186;2023-08-12T08:42:37;4.75;;;2.10;;
49101;SDS011;34913;47.520;19.186;2023-08-12T08:45:03;2.67;;;2.10;;
49101;SDS011;34913;47.520;19.186;2023-08-12T08:47:33;5.20;;;2.25;;
49101;SDS011;34913;47.520;19.186;2023-08-12T08:49:59;3.83;;;2.70;;
49101;SDS011;34913;47.520;19.186;2023-08-12T08:52:25;4.40;;;2.42;;
49101;SDS011;34913;47.520;19.186;2023-08-12T08:54:51;3.67;;;2.30;;
49101;SDS011;34913;47.520;19.186;2023-08-12T08:57:17;4.82;;;2.70;;
49101;SDS011;34913;47.520;19.186;2023-08-12T08:59:43;3.53;;;2.17;;
49101;SDS011;34913;47.520;19.186;2023-08-12T09:02:11;3.45;;;2.38;;
49101;SDS011;34913;47.520;19.186;2023-08-12T09:04:41;6.95;;;2.60;;
49101;SDS011;34913;47.520;19.186;2023-08-12T09:07:07;5.57;;;2.45;;
49101;SDS011;34913;47.520;19.186;2023-08-12T09:09:34;3.13;;;2.10;;
49101;SDS011;34913;47.520;19.186;2023-08-12T09:12:00;4.43;;;2.30;;
49101;SDS011;34913;47.520;19.186;2023-08-12T09:14:26;2.85;;;2.50;;
49101;SDS011;34913;47.520;19.186;2023-08-12T09:16:52;6.93;;;2.00;;
49101;SDS011;34913;47.520;19.186;2023-08-12T09:19:17;4.95;;;2.33;;
49101;SDS011;34913;47.520;19.186;2023-08-12T09:21:43;4.93;;;1.90;;
49101;SDS011;34913;47.520;19.186;2023-08-12T09:24:08;6.28;;;1.98;;
49101;SDS011;34913;47.520;19.186;2023-08-12T09:26:33;9.02;;;2.10;;
49101;SDS011;34913;47.520;19.186;2023-08-12T09:28:59;2.58;;;2.10;;
49101;SDS011;34913;47.520;19.186;2023-08-12T09:31:28;3.30;;;1.90;;
49101;SDS011;34913;47.520;19.186;2023-08-12T09:33:59;7.25;;;2.78;;
49101;SDS011;34913;47.520;19.186;2023-08-12T09:36:28;2.60;;;2.10;;
49101;SDS011;34913;47.520;19.186;2023-08-12T09:38:55;2.08;;;1.88;;
49101;SDS011;34913;47.520;19.186;2023-08-12T09:41:22;3.78;;;1.80;;
49101;SDS011;34913;47.520;19.186;2023-08-12T09:43:50;3.22;;;1.70;;
49101;SDS011;34913;47.520;19.186;2023-08-12T09:46:17;3.65;;;1.85;;
49101;SDS011;34913;47.520;19.186;2023-08-12T09:48:43;3.80;;;1.95;;
49101;SDS011;34913;47.520;19.186;2023-08-12T09:51:08;3.67;;;1.90;;
49101;SDS011;34913;47.520;19.186;2023-08-12T09:53:35;3.90;;;2.05;;
49101;SDS011;34913;47.520;19.186;2023-08-12T09:56:04;2.92;;;2.08;;
49101;SDS011;34913;47.520;19.186;2023-08-12T09:58:35;4.57;;;2.33;;
49101;SDS011;34913;47.520;19.186;2023-08-12T10:01:04;2.10;;;1.90;;
49101;SDS011;34913;47.520;19.186;2023-08-12T10:03:32;2.70;;;1.92;;
49101;SDS011;34913;47.520;19.186;2023-08-12T10:06:00;3.35;;;2.15;;
49101;SDS011;34913;47.520;19.186;2023-08-12T10:08:29;2.30;;;2.10;;
49101;SDS011;34913;47.520;19.186;2023-08-12T10:10:56;2.63;;;2.08;;
49101;SDS011;34913;47.520;19.186;2023-08-12T10:13:22;3.60;;;1.90;;
49101;SDS011;34913;47.520;19.186;2023-08-12T10:15:48;4.68;;;2.20;;
49101;SDS011;34913;47.520;19.186;2023-08-12T10:18:15;5.18;;;3.85;;
49101;SDS011;34913;47.520;19.186;2023-08-12T10:20:40;4.93;;;2.60;;
49101;SDS011;34913;47.520;19.186;2023-08-12T10:23:08;2.97;;;2.20;;
49101;SDS011;34913;47.520;19.186;2023-08-12T10:25:41;3.35;;;2.00;;
49101;SDS011;34913;47.520;19.186;2023-08-12T10:28:07;4.18;;;2.47;;
49101;SDS011;34913;47.520;19.186;2023-08-12T10:30:33;4.05;;;2.30;;
49101;SDS011;34913;47.520;19.186;2023-08-12T10:32:59;4.55;;;3.40;;
49101;SDS011;34913;47.520;19.186;2023-08-12T10:35:39;4.25;;;3.00;;
49101;SDS011;34913;47.520;19.186;2023-08-12T10:38:10;2.10;;;1.90;;
49101;SDS011;34913;47.520;19.186;2023-08-12T10:40:36;5.15;;;2.03;;
49101;SDS011;34913;47.520;19.186;2023-08-12T10:43:02;2.03;;;1.83;;
49101;SDS011;34913;47.520;19.186;2023-08-12T10:45:41;3.42;;;2.03;;
49101;SDS011;34913;47.520;19.186;2023-08-12T10:50:58;6.75;;;1.90;;
49101;SDS011;34913;47.520;19.186;2023-08-12T10:55:55;4.90;;;2.10;;
49101;SDS011;34913;47.520;19.186;2023-08-12T10:59:04;3.50;;;2.00;;
49101;SDS011;34913;47.520;19.186;2023-08-12T11:01:17;3.47;;;1.80;;
49101;SDS011;34913;47.520;19.186;2023-08-12T11:03:43;5.50;;;4.30;;
49101;SDS011;34913;47.520;19.186;2023-08-12T11:06:12;3.25;;;2.05;;
49101;SDS011;34913;47.520;19.186;2023-08-12T11:08:47;4.63;;;2.70;;
49101;SDS011;34913;47.520;19.186;2023-08-12T11:11:20;4.63;;;2.60;;
49101;SDS011;34913;47.520;19.186;2023-08-12T11:13:52;5.95;;;2.83;;
49101;SDS011;34913;47.520;19.186;2023-08-12T11:16:36;3.80;;;2.45;;
49101;SDS011;34913;47.520;19.186;2023-08-12T11:19:02;4.75;;;2.60;;
49101;SDS011;34913;47.520;19.186;2023-08-12T11:21:29;2.58;;;1.90;;
49101;SDS011;34913;47.520;19.186;2023-08-12T11:23:55;3.08;;;2.20;;
49101;SDS011;34913;47.520;19.186;2023-08-12T11:26:22;2.33;;;1.80;;
49101;SDS011;34913;47.520;19.186;2023-08-12T11:28:48;4.10;;;1.88;;
49101;SDS011;34913;47.520;19.186;2023-08-12T11:31:14;3.00;;;2.70;;
49101;SDS011;34913;47.520;19.186;2023-08-12T11:33:39;2.83;;;1.85;;
49101;SDS011;34913;47.520;19.186;2023-08-12T11:36:05;2.60;;;1.77;;
49101;SDS011;34913;47.520;19.186;2023-08-12T11:38:31;4.93;;;2.00;;
49101;SDS011;34913;47.520;19.186;2023-08-12T11:40:56;2.53;;;1.92;;
49101;SDS011;34913;47.520;19.186;2023-08-12T11:43:26;3.75;;;2.03;;
49101;SDS011;34913;47.520;19.186;2023-08-12T11:45:51;3.60;;;1.70;;
49101;SDS011;34913;47.520;19.186;2023-08-12T11:48:16;2.97;;;2.20;;
49101;SDS011;34913;47.520;19.186;2023-08-12T11:50:42;2.13;;;1.70;;
49101;SDS011;34913;47.520;19.186;2023-08-12T11:53:07;4.28;;;2.03;;
49101;SDS011;34913;47.520;19.186;2023-08-12T11:55:33;1.90;;;1.70;;
49101;SDS011;34913;47.520;19.186;2023-08-12T11:57:59;2.58;;;1.92;;
49101;SDS011;34913;47.520;19.186;2023-08-12T12:00:25;7.38;;;4.90;;
49101;SDS011;34913;47.520;19.186;2023-08-12T12:02:51;5.50;;;2.10;;
49101;SDS011;34913;47.520;19.186;2023-08-12T12:05:20;4.15;;;1.80;;
49101;SDS011;34913;47.520;19.186;2023-08-12T12:07:52;3.50;;;1.70;;
49101;SDS011;34913;47.520;19.186;2023-08-12T12:10:25;1.83;;;1.55;;
49101;SDS011;34913;47.520;19.186;2023-08-12T12:12:55;3.80;;;1.83;;
49101;SDS011;34913;47.520;19.186;2023-08-12T12:15:21;3.08;;;2.13;;
49101;SDS011;34913;47.520;19.186;2023-08-12T12:17:47;4.05;;;1.88;;
49101;SDS011;34913;47.520;19.186;2023-08-12T12:20:13;1.90;;;1.80;;
49101;SDS011;34913;47.520;19.186;2023-08-12T12:22:40;2.15;;;1.95;;
49101;SDS011;34913;47.520;19.186;2023-08-12T12:25:09;3.10;;;1.98;;
49101;SDS011;34913;47.520;19.186;2023-08-12T12:27:37;2.05;;;1.77;;
49101;SDS011;34913;47.520;19.186;2023-08-12T12:30:04;2.28;;;1.92;;
49101;SDS011;34913;47.520;19.186;2023-08-12T12:32:29;2.17;;;1.77;;
49101;SDS011;34913;47.520;19.186;2023-08-12T12:34:56;4.25;;;1.90;;
49101;SDS011;34913;47.520;19.186;2023-08-12T12:37:22;2.83;;;1.98;;
49101;SDS011;34913;47.520;19.186;2023-08-12T12:39:47;4.10;;;1.80;;
49101;SDS011;34913;47.520;19.186;2023-08-12T12:42:13;4.53;;;1.65;;
49101;SDS011;34913;47.520;19.186;2023-08-12T12:44:38;2.72;;;1.90;;
49101;SDS011;34913;47.520;19.186;2023-08-12T12:47:04;2.45;;;1.65;;
49101;SDS011;34913;47.520;19.186;2023-08-12T12:49:29;3.22;;;1.92;;
49101;SDS011;34913;47.520;19.186;2023-08-12T12:51:55;4.47;;;2.90;;
49101;SDS011;34913;47.520;19.186;2023-08-12T12:54:20;7.13;;;2.55;;
49101;SDS011;34913;47.520;19.186;2023-08-12T12:56:46;2.10;;;1.80;;
49101;SDS011;34913;47.520;19.186;2023-08-12T12:59:11;3.60;;;1.90;;
49101;SDS011;34913;47.520;19.186;2023-08-12T13:01:37;2.03;;;1.88;;
49101;SDS011;34913;47.520;19.186;2023-08-12T13:04:02;2.15;;;1.90;;
49101;SDS011;34913;47.520;19.186;2023-08-12T13:06:28;2.25;;;1.70;;
49101;SDS011;34913;47.520;19.186;2023-08-12T13:08:53;2.97;;;1.70;;
49101;SDS011;34913;47.520;19.186;2023-08-12T13:11:19;2.58;;;1.50;;
49101;SDS011;34913;47.520;19.186;2023-08-12T13:13:44;4.63;;;1.75;;
49101;SDS011;34913;47.520;19.186;2023-08-12T13:16:10;2.08;;;1.65;;
49101;SDS011;34913;47.520;19.186;2023-08-12T13:18:35;2.15;;;1.75;;
49101;SDS011;34913;47.520;19.186;2023-08-12T13:21:00;2.63;;;1.77;;
49101;SDS011;34913;47.520;19.186;2023-08-12T13:23:26;2.83;;;1.80;;
49101;SDS011;34913;47.520;19.186;2023-08-12T13:25:52;2.03;;;1.70;;
49101;SDS011;34913;47.520;19.186;2023-08-12T13:28:17;4.88;;;1.83;;
49101;SDS011;34913;47.520;19.186;2023-08-12T13:30:43;3.53;;;1.70;;
49101;SDS011;34913;47.520;19.186;2023-08-12T13:33:10;2.67;;;1.70;;
49101;SDS011;34913;47.520;19.186;2023-08-12T13:35:36;2.30;;;1.73;;
49101;SDS011;34913;47.520;19.186;2023-08-12T13:38:01;1.88;;;1.60;;
49101;SDS011;34913;47.520;19.186;2023-08-12T13:40:27;2.50;;;1.80;;
49101;SDS011;34913;47.520;19.186;2023-08-12T13:42:53;3.40;;;1.90;;
49101;SDS011;34913;47.520;19.186;2023-08-12T13:45:18;5.05;;;1.90;;
49101;SDS011;34913;47.520;19.186;2023-08-12T13:47:44;2.03;;;1.83;;
49101;SDS011;34913;47.520;19.186;2023-08-12T13:50:09;3.75;;;1.77;;
49101;SDS011;34913;47.520;19.186;2023-08-12T13:52:35;2.67;;;1.73;;
49101;SDS011;34913;47.520;19.186;2023-08-12T13:55:00;3.40;;;1.90;;
49101;SDS011;34913;47.520;19.186;2023-08-12T13:57:26;1.60;;;1.50;;
49101;SDS011;34913;47.520;19.186;2023-08-12T13:59:52;2.25;;;1.50;;
49101;SDS011;34913;47.520;19.186;2023-08-12T14:02:17;4.82;;;1.88;;
49101;SDS011;34913;47.520;19.186;2023-08-12T14:04:42;3.88;;;1.63;;
49101;SDS011;34913;47.520;19.186;2023-08-12T14:07:08;2.20;;;1.60;;
49101;SDS011;34913;47.520;19.186;2023-08-12T14:09:34;1.70;;;1.60;;
49101;SDS011;34913;47.520;19.186;2023-08-12T14:11:59;4.10;;;1.70;;
49101;SDS011;34913;47.520;19.186;2023-08-12T14:14:25;2.05;;;1.60;;
49101;SDS011;34913;47.520;19.186;2023-08-12T14:16:54;1.73;;;1.55;;
49101;SDS011;34913;47.520;19.186;2023-08-12T14:19:19;3.45;;;1.70;;
49101;SDS011;34913;47.520;19.186;2023-08-12T14:21:45;4.78;;;1.70;;
49101;SDS011;34913;47.520;19.186;2023-08-12T14:24:10;4.80;;;1.85;;
49101;SDS011;34913;47.520;19.186;2023-08-12T14:26:36;1.80;;;1.70;;
49101;SDS011;34913;47.520;19.186;2023-08-12T14:29:02;2.58;;;1.55;;
49101;SDS011;34913;47.520;19.186;2023-08-12T14:31:27;5.70;;;1.90;;
49101;SDS011;34913;47.520;19.186;2023-08-12T14:33:53;2.88;;;1.85;;
49101;SDS011;34913;47.520;19.186;2023-08-12T14:36:18;2.17;;;1.70;;
49101;SDS011;34913;47.520;19.186;2023-08-12T14:38:44;2.28;;;1.90;;
49101;SDS011;34913;47.520;19.186;2023-08-12T14:41:09;2.35;;;1.80;;